createdAt,value
2018-11-12T00:00:29.251Z,18.80
2018-11-12T00:01:06.767Z,18.90
2018-11-12T00:01:44.282Z,18.80
2018-11-12T00:02:22.292Z,18.90
2018-11-12T00:02:59.818Z,18.90
2018-11-12T00:03:37.422Z,18.80
2018-11-12T00:04:14.964Z,18.80
2018-11-12T00:04:52.694Z,18.90
2018-11-12T00:05:30.317Z,18.80
2018-11-12T00:06:07.841Z,18.90
2018-11-12T00:06:45.649Z,18.80
2018-11-12T00:07:23.472Z,18.80
2018-11-12T00:08:00.983Z,18.90
2018-11-12T00:08:38.401Z,18.80
2018-11-12T00:09:16.093Z,18.80
2018-11-12T00:09:53.358Z,18.80
2018-11-12T00:10:30.948Z,18.80
2018-11-12T00:11:08.631Z,18.80
2018-11-12T00:11:46.205Z,18.80
2018-11-12T00:12:23.820Z,18.80
2018-11-12T00:13:01.324Z,18.80
2018-11-12T00:13:38.781Z,18.80
2018-11-12T00:14:16.191Z,18.80
2018-11-12T00:14:53.703Z,18.80
2018-11-12T00:15:31.561Z,18.80
2018-11-12T00:16:09.186Z,18.80
2018-11-12T00:16:46.986Z,18.80
2018-11-12T00:17:24.545Z,18.80
2018-11-12T00:18:01.871Z,18.80
2018-11-12T00:18:39.288Z,18.80
2018-11-12T00:19:16.843Z,18.80
2018-11-12T00:19:54.246Z,18.80
2018-11-12T00:20:31.715Z,18.90
2018-11-12T00:21:09.191Z,18.80
2018-11-12T00:21:46.916Z,18.80
2018-11-12T00:22:24.534Z,18.80
2018-11-12T00:23:02.124Z,18.80
2018-11-12T00:23:39.620Z,18.80
2018-11-12T00:24:17.133Z,18.90
2018-11-12T00:24:54.569Z,18.80
2018-11-12T00:25:32.476Z,18.90
2018-11-12T00:26:10.060Z,18.80
2018-11-12T00:26:47.923Z,18.80
2018-11-12T00:27:25.382Z,18.80
2018-11-12T00:28:02.667Z,18.80
2018-11-12T00:28:40.290Z,18.90
2018-11-12T00:29:17.604Z,18.80
2018-11-12T00:29:55.224Z,18.80
2018-11-12T00:30:32.740Z,18.90
2018-11-12T00:31:10.385Z,18.90
2018-11-12T00:31:48.161Z,18.80
2018-11-12T00:32:25.689Z,18.90
2018-11-12T00:33:03.190Z,18.80
2018-11-12T00:33:40.631Z,18.90
2018-11-12T00:34:17.975Z,18.80
2018-11-12T00:34:55.680Z,18.90
2018-11-12T00:35:33.172Z,18.90
2018-11-12T00:36:10.662Z,18.80
2018-11-12T00:36:48.206Z,18.80
2018-11-12T00:37:25.567Z,18.80
2018-11-12T00:38:03.019Z,18.80
2018-11-12T00:38:40.376Z,18.80
2018-11-12T00:39:17.705Z,18.80
2018-11-12T00:39:55.196Z,18.80
2018-11-12T00:40:32.789Z,18.90
2018-11-12T00:41:10.374Z,18.80
2018-11-12T00:41:47.924Z,18.80
2018-11-12T00:42:25.504Z,18.80
2018-11-12T00:43:03.400Z,18.80
2018-11-12T00:43:40.891Z,18.80
2018-11-12T00:44:18.277Z,18.80
2018-11-12T00:44:56.172Z,18.80
2018-11-12T00:45:33.768Z,18.80
2018-11-12T00:46:11.318Z,18.80
2018-11-12T00:46:48.779Z,18.90
2018-11-12T00:47:26.294Z,18.80
2018-11-12T00:48:03.701Z,18.80
2018-11-12T00:48:41.398Z,18.90
2018-11-12T00:49:19.037Z,18.80
2018-11-12T00:49:56.807Z,18.80
2018-11-12T00:50:34.375Z,18.90
2018-11-12T00:51:11.989Z,18.80
2018-11-12T00:51:49.539Z,18.90
2018-11-12T00:52:27.011Z,18.80
2018-11-12T00:53:04.899Z,18.80
2018-11-12T00:53:42.587Z,18.90
2018-11-12T00:54:20.327Z,18.90
2018-11-12T00:54:57.752Z,18.90
2018-11-12T00:55:35.322Z,18.90
2018-11-12T00:56:12.942Z,18.90
2018-11-12T00:56:50.605Z,18.90
2018-11-12T00:57:27.959Z,18.90
2018-11-12T00:58:05.360Z,18.90
2018-11-12T00:58:42.771Z,18.90
2018-11-12T00:59:20.335Z,18.90
2018-11-12T00:59:58.121Z,18.90
2018-11-12T01:00:35.589Z,18.90
2018-11-12T01:01:13.094Z,18.80
2018-11-12T01:01:50.440Z,18.90
2018-11-12T01:02:28.346Z,18.90
2018-11-12T01:03:06.047Z,18.80
2018-11-12T01:03:43.631Z,18.80
2018-11-12T01:04:21.155Z,18.80
2018-11-12T01:04:58.488Z,18.80
2018-11-12T01:05:35.813Z,18.80
2018-11-12T01:06:13.448Z,18.80
2018-11-12T01:06:51.037Z,18.80
2018-11-12T01:07:28.690Z,18.80
2018-11-12T01:08:06.504Z,18.80
2018-11-12T01:08:44.156Z,18.80
2018-11-12T01:09:21.906Z,18.80
2018-11-12T01:09:59.381Z,18.80
2018-11-12T01:10:37.105Z,18.80
2018-11-12T01:11:14.517Z,18.80
2018-11-12T01:11:52.206Z,18.80
2018-11-12T01:12:29.864Z,18.80
2018-11-12T01:13:07.644Z,18.80
2018-11-12T01:13:45.109Z,18.80
2018-11-12T01:14:22.797Z,18.80
2018-11-12T01:15:00.391Z,18.80
2018-11-12T01:15:38.016Z,18.80
2018-11-12T01:16:15.671Z,18.80
2018-11-12T01:16:53.168Z,18.70
2018-11-12T01:17:30.499Z,18.70
2018-11-12T01:18:08.222Z,18.80
2018-11-12T01:18:45.782Z,18.70
2018-11-12T01:19:23.373Z,18.70
2018-11-12T01:20:00.822Z,18.70
2018-11-12T01:20:38.106Z,18.80
2018-11-12T01:21:15.487Z,18.70
2018-11-12T01:21:53.004Z,18.80
2018-11-12T01:22:30.517Z,18.80
2018-11-12T01:23:07.869Z,18.80
2018-11-12T01:23:45.291Z,18.70
2018-11-12T01:24:22.708Z,18.70
2018-11-12T01:25:00.274Z,18.80
2018-11-12T01:25:37.958Z,18.80
2018-11-12T01:26:15.305Z,18.80
2018-11-12T01:26:53.009Z,18.70
2018-11-12T01:27:30.500Z,18.70
2018-11-12T01:28:07.830Z,18.80
2018-11-12T01:28:45.439Z,18.80
2018-11-12T01:29:23.014Z,18.80
2018-11-12T01:30:00.487Z,18.70
2018-11-12T01:30:38.069Z,18.70
2018-11-12T01:31:15.551Z,18.70
2018-11-12T01:31:53.162Z,18.70
2018-11-12T01:32:30.625Z,18.70
2018-11-12T01:33:08.195Z,18.70
2018-11-12T01:33:45.708Z,18.70
2018-11-12T01:34:23.350Z,18.70
2018-11-12T01:35:00.828Z,18.80
2018-11-12T01:35:38.113Z,18.80
2018-11-12T01:36:15.685Z,18.80
2018-11-12T01:36:53.205Z,18.70
2018-11-12T01:37:30.748Z,18.70
2018-11-12T01:38:08.428Z,18.70
2018-11-12T01:38:45.943Z,18.80
2018-11-12T01:39:23.569Z,18.70
2018-11-12T01:40:01.188Z,18.80
2018-11-12T01:40:38.980Z,18.70
2018-11-12T01:41:16.630Z,18.70
2018-11-12T01:41:54.145Z,18.70
2018-11-12T01:42:31.613Z,18.80
2018-11-12T01:43:09.056Z,18.70
2018-11-12T01:43:46.755Z,18.80
2018-11-12T01:44:24.286Z,18.80
2018-11-12T01:45:01.694Z,18.70
2018-11-12T01:45:39.347Z,18.70
2018-11-12T01:46:16.851Z,18.70
2018-11-12T01:46:54.348Z,18.70
2018-11-12T01:47:31.958Z,18.70
2018-11-12T01:48:09.770Z,18.70
2018-11-12T01:48:47.254Z,18.70
2018-11-12T01:49:24.681Z,18.70
2018-11-12T01:50:02.369Z,18.80
2018-11-12T01:50:39.864Z,18.80
2018-11-12T01:51:17.334Z,18.70
2018-11-12T01:51:54.791Z,18.70
2018-11-12T01:52:32.359Z,18.70
2018-11-12T01:53:10.249Z,18.70
2018-11-12T01:53:48.000Z,18.70
2018-11-12T01:54:25.567Z,18.70
2018-11-12T01:55:03.226Z,18.70
2018-11-12T01:55:41.009Z,18.70
2018-11-12T01:56:18.710Z,18.70
2018-11-12T01:56:56.174Z,18.70
2018-11-12T01:57:33.725Z,18.70
2018-11-12T01:58:11.200Z,18.70
2018-11-12T01:58:48.777Z,18.70
2018-11-12T01:59:26.500Z,18.70
2018-11-12T02:00:03.925Z,18.70
2018-11-12T02:00:41.280Z,18.70
2018-11-12T02:01:18.578Z,18.70
2018-11-12T02:01:55.903Z,18.70
2018-11-12T02:02:33.401Z,18.60
2018-11-12T02:03:10.780Z,18.60
2018-11-12T02:03:48.402Z,18.60
2018-11-12T02:04:26.139Z,18.60
2018-11-12T02:05:03.680Z,18.60
2018-11-12T02:05:41.219Z,18.60
2018-11-12T02:06:19.080Z,18.60
2018-11-12T02:06:56.642Z,18.60
2018-11-12T02:07:34.054Z,18.60
2018-11-12T02:08:11.519Z,18.60
2018-11-12T02:08:49.018Z,18.60
2018-11-12T02:09:26.365Z,18.60
2018-11-12T02:10:03.726Z,18.60
2018-11-12T02:10:41.218Z,18.60
2018-11-12T02:11:18.860Z,18.60
2018-11-12T02:11:56.486Z,18.60
2018-11-12T02:12:33.918Z,18.70
2018-11-12T02:13:11.720Z,18.70
2018-11-12T02:13:49.462Z,18.60
2018-11-12T02:14:26.866Z,18.70
2018-11-12T02:15:04.255Z,18.60
2018-11-12T02:15:41.704Z,18.60
2018-11-12T02:16:19.351Z,18.70
2018-11-12T02:16:56.963Z,18.70
2018-11-12T02:17:34.479Z,18.70
2018-11-12T02:18:11.784Z,18.70
2018-11-12T02:18:49.609Z,18.70
2018-11-12T02:19:27.067Z,18.70
2018-11-12T02:20:04.828Z,18.70
2018-11-12T02:20:42.664Z,18.70
2018-11-12T02:21:20.235Z,18.70
2018-11-12T02:21:57.532Z,18.70
2018-11-12T02:22:35.041Z,18.70
2018-11-12T02:23:12.481Z,18.70
2018-11-12T02:23:50.431Z,18.70
2018-11-12T02:24:27.651Z,18.70
2018-11-12T02:25:05.133Z,18.70
2018-11-12T02:25:42.542Z,18.60
2018-11-12T02:26:19.835Z,18.60
2018-11-12T02:26:57.412Z,18.70
2018-11-12T02:27:34.991Z,18.70
2018-11-12T02:28:12.461Z,18.60
2018-11-12T02:28:49.974Z,18.60
2018-11-12T02:29:27.813Z,18.60
2018-11-12T02:30:05.299Z,18.60
2018-11-12T02:30:42.804Z,18.60
2018-11-12T02:31:20.383Z,18.60
2018-11-12T02:31:58.172Z,18.60
2018-11-12T02:32:35.602Z,18.60
2018-11-12T02:33:13.091Z,18.60
2018-11-12T02:33:50.803Z,18.60
2018-11-12T02:34:28.411Z,18.60
2018-11-12T02:35:05.974Z,18.60
2018-11-12T02:35:43.614Z,18.60
2018-11-12T02:36:21.202Z,18.60
2018-11-12T02:36:58.602Z,18.60
2018-11-12T02:37:36.395Z,18.60
2018-11-12T02:38:13.855Z,18.60
2018-11-12T02:38:51.440Z,18.60
2018-11-12T02:39:29.242Z,18.60
2018-11-12T02:40:06.963Z,18.60
2018-11-12T02:40:44.547Z,18.60
2018-11-12T02:41:22.192Z,18.60
2018-11-12T02:41:59.532Z,18.60
2018-11-12T02:42:37.270Z,18.60
2018-11-12T02:43:14.936Z,18.60
2018-11-12T02:43:52.463Z,18.60
2018-11-12T02:44:29.684Z,18.60
2018-11-12T02:45:07.371Z,18.60
2018-11-12T02:45:44.822Z,18.60
2018-11-12T02:46:22.394Z,18.60
2018-11-12T02:46:59.831Z,18.60
2018-11-12T02:47:37.503Z,18.60
2018-11-12T02:48:15.021Z,18.60
2018-11-12T02:48:52.604Z,18.60
2018-11-12T02:49:30.234Z,18.60
2018-11-12T02:50:07.752Z,18.60
2018-11-12T02:50:45.296Z,18.60
2018-11-12T02:51:23.059Z,18.60
2018-11-12T02:52:00.261Z,18.60
2018-11-12T02:52:37.692Z,18.60
2018-11-12T02:53:15.010Z,18.60
2018-11-12T02:53:52.457Z,18.60
2018-11-12T02:54:30.044Z,18.60
2018-11-12T02:55:07.653Z,18.60
2018-11-12T02:55:45.013Z,18.60
2018-11-12T02:56:22.607Z,18.50
2018-11-12T02:57:00.144Z,18.60
2018-11-12T02:57:37.740Z,18.60
2018-11-12T02:58:15.175Z,18.60
2018-11-12T02:58:52.783Z,18.50
2018-11-12T02:59:30.506Z,18.60
2018-11-12T03:00:07.922Z,18.60
2018-11-12T03:00:45.469Z,18.60
2018-11-12T03:01:23.397Z,18.60
2018-11-12T03:02:00.922Z,18.50
2018-11-12T03:02:38.418Z,18.50
2018-11-12T03:03:16.050Z,18.60
2018-11-12T03:03:53.629Z,18.60
2018-11-12T03:04:31.202Z,18.50
2018-11-12T03:05:08.761Z,18.60
2018-11-12T03:05:46.542Z,18.60
2018-11-12T03:06:24.029Z,18.60
2018-11-12T03:07:01.384Z,18.60
2018-11-12T03:07:38.882Z,18.60
2018-11-12T03:08:16.751Z,18.60
2018-11-12T03:08:54.142Z,18.60
2018-11-12T03:09:31.655Z,18.60
2018-11-12T03:10:09.187Z,18.60
2018-11-12T03:10:46.975Z,18.60
2018-11-12T03:11:24.563Z,18.60
2018-11-12T03:12:02.102Z,18.60
2018-11-12T03:12:40.082Z,18.50
2018-11-12T03:13:17.518Z,18.60
2018-11-12T03:13:55.064Z,18.50
2018-11-12T03:14:32.663Z,18.60
2018-11-12T03:15:10.180Z,18.50
2018-11-12T03:15:47.523Z,18.60
2018-11-12T03:16:25.311Z,18.60
2018-11-12T03:17:03.115Z,18.50
2018-11-12T03:17:41.124Z,18.50
2018-11-12T03:18:18.666Z,18.60
2018-11-12T03:18:56.354Z,18.50
2018-11-12T03:19:33.782Z,18.50
2018-11-12T03:20:11.302Z,18.50
2018-11-12T03:20:49.034Z,18.50
2018-11-12T03:21:26.471Z,18.50
2018-11-12T03:22:04.042Z,18.50
2018-11-12T03:22:41.612Z,18.50
2018-11-12T03:23:19.243Z,18.50
2018-11-12T03:23:56.721Z,18.50
2018-11-12T03:24:34.292Z,18.50
2018-11-12T03:25:11.506Z,18.50
2018-11-12T03:25:49.135Z,18.50
2018-11-12T03:26:26.886Z,18.50
2018-11-12T03:27:04.599Z,18.50
2018-11-12T03:27:42.309Z,18.50
2018-11-12T03:28:19.869Z,18.50
2018-11-12T03:28:57.364Z,18.50
2018-11-12T03:29:34.984Z,18.50
2018-11-12T03:30:12.342Z,18.50
2018-11-12T03:30:50.211Z,18.50
2018-11-12T03:31:27.859Z,18.50
2018-11-12T03:32:05.455Z,18.40
2018-11-12T03:32:42.845Z,18.40
2018-11-12T03:33:20.255Z,18.40
2018-11-12T03:33:57.925Z,18.50
2018-11-12T03:34:35.479Z,18.40
2018-11-12T03:35:12.930Z,18.40
2018-11-12T03:35:50.636Z,18.40
2018-11-12T03:36:28.028Z,18.40
2018-11-12T03:37:05.657Z,18.50
2018-11-12T03:37:43.092Z,18.40
2018-11-12T03:38:20.618Z,18.40
2018-11-12T03:38:58.030Z,18.40
2018-11-12T03:39:35.751Z,18.40
2018-11-12T03:40:13.336Z,18.40
2018-11-12T03:40:50.819Z,18.40
2018-11-12T03:41:28.640Z,18.40
2018-11-12T03:42:06.504Z,18.40
2018-11-12T03:42:44.092Z,18.40
2018-11-12T03:43:21.637Z,18.40
2018-11-12T03:43:59.191Z,18.40
2018-11-12T03:44:36.844Z,18.40
2018-11-12T03:45:14.554Z,18.40
2018-11-12T03:45:52.140Z,18.40
2018-11-12T03:46:29.654Z,18.40
2018-11-12T03:47:07.105Z,18.40
2018-11-12T03:47:44.600Z,18.40
2018-11-12T03:48:22.186Z,18.30
2018-11-12T03:48:59.944Z,18.40
2018-11-12T03:49:37.526Z,18.40
2018-11-12T03:50:14.986Z,18.40
2018-11-12T03:50:52.543Z,18.30
2018-11-12T03:51:30.157Z,18.40
2018-11-12T03:52:07.814Z,18.40
2018-11-12T03:52:45.229Z,18.30
2018-11-12T03:53:22.947Z,18.40
2018-11-12T03:54:00.562Z,18.40
2018-11-12T03:54:38.343Z,18.40
2018-11-12T03:55:16.065Z,18.40
2018-11-12T03:55:53.750Z,18.40
2018-11-12T03:56:31.030Z,18.40
2018-11-12T03:57:08.343Z,18.40
2018-11-12T03:57:45.575Z,18.40
2018-11-12T03:58:23.304Z,18.40
2018-11-12T03:59:00.896Z,18.40
2018-11-12T03:59:38.499Z,18.40
2018-11-12T04:00:16.157Z,18.40
2018-11-12T04:00:53.912Z,18.40
2018-11-12T04:01:31.234Z,18.40
2018-11-12T04:02:08.621Z,18.40
2018-11-12T04:02:46.056Z,18.40
2018-11-12T04:03:23.396Z,18.40
2018-11-12T04:04:00.793Z,18.40
2018-11-12T04:04:38.074Z,18.40
2018-11-12T04:05:15.692Z,18.40
2018-11-12T04:05:52.973Z,18.40
2018-11-12T04:06:30.313Z,18.40
2018-11-12T04:07:07.854Z,18.40
2018-11-12T04:07:45.493Z,18.40
2018-11-12T04:08:22.867Z,18.40
2018-11-12T04:09:00.305Z,18.40
2018-11-12T04:09:37.745Z,18.40
2018-11-12T04:10:15.302Z,18.40
2018-11-12T04:10:52.691Z,18.40
2018-11-12T04:11:30.182Z,18.40
2018-11-12T04:12:07.782Z,18.30
2018-11-12T04:12:45.184Z,18.30
2018-11-12T04:13:22.413Z,18.30
2018-11-12T04:13:59.740Z,18.40
2018-11-12T04:14:37.070Z,18.40
2018-11-12T04:15:14.626Z,18.30
2018-11-12T04:15:52.109Z,18.40
2018-11-12T04:16:29.513Z,18.40
2018-11-12T04:17:07.114Z,18.30
2018-11-12T04:17:44.428Z,18.40
2018-11-12T04:18:21.973Z,18.40
2018-11-12T04:18:59.499Z,18.30
2018-11-12T04:19:36.814Z,18.30
2018-11-12T04:20:14.514Z,18.30
2018-11-12T04:20:51.786Z,18.30
2018-11-12T04:21:29.214Z,18.40
2018-11-12T04:22:06.592Z,18.40
2018-11-12T04:22:43.978Z,18.40
2018-11-12T04:23:21.384Z,18.40
2018-11-12T04:23:58.859Z,18.30
2018-11-12T04:24:36.509Z,18.40
2018-11-12T04:25:14.101Z,18.30
2018-11-12T04:25:51.602Z,18.30
2018-11-12T04:26:29.294Z,18.30
2018-11-12T04:27:06.557Z,18.30
2018-11-12T04:27:44.216Z,18.30
2018-11-12T04:28:21.622Z,18.30
2018-11-12T04:28:59.032Z,18.30
2018-11-12T04:29:36.627Z,18.30
2018-11-12T04:30:14.097Z,18.30
2018-11-12T04:30:51.413Z,18.20
2018-11-12T04:31:28.770Z,18.30
2018-11-12T04:32:06.065Z,18.30
2018-11-12T04:32:43.514Z,18.30
2018-11-12T04:33:20.814Z,18.20
2018-11-12T04:33:58.298Z,18.30
2018-11-12T04:34:35.713Z,18.20
2018-11-12T04:35:13.290Z,18.20
2018-11-12T04:35:50.784Z,18.20
2018-11-12T04:36:28.334Z,18.20
2018-11-12T04:37:05.785Z,18.30
2018-11-12T04:37:43.300Z,18.20
2018-11-12T04:38:20.539Z,18.30
2018-11-12T04:38:57.795Z,18.20
2018-11-12T04:39:35.425Z,18.20
2018-11-12T04:40:12.914Z,18.30
2018-11-12T04:40:50.552Z,18.30
2018-11-12T04:41:27.924Z,18.20
2018-11-12T04:42:05.152Z,18.30
2018-11-12T04:42:42.624Z,18.20
2018-11-12T04:43:19.997Z,18.30
2018-11-12T04:43:57.900Z,18.20
2018-11-12T04:44:35.330Z,18.20
2018-11-12T04:45:12.806Z,18.30
2018-11-12T04:45:50.434Z,18.30
2018-11-12T04:46:27.983Z,18.30
2018-11-12T04:47:05.531Z,18.30
2018-11-12T04:47:42.924Z,18.30
2018-11-12T04:48:20.461Z,18.30
2018-11-12T04:48:58.174Z,18.30
2018-11-12T04:49:35.465Z,18.40
2018-11-12T04:50:12.939Z,18.30
2018-11-12T04:50:50.566Z,18.40
2018-11-12T04:51:28.042Z,18.40
2018-11-12T04:52:05.562Z,18.40
2018-11-12T04:52:42.830Z,18.30
2018-11-12T04:53:20.135Z,18.40
2018-11-12T04:53:57.470Z,18.30
2018-11-12T04:54:34.748Z,18.40
2018-11-12T04:55:12.009Z,18.40
2018-11-12T04:55:49.619Z,18.40
2018-11-12T04:56:27.163Z,18.40
2018-11-12T04:57:04.692Z,18.40
2018-11-12T04:57:42.070Z,18.40
2018-11-12T04:58:19.705Z,18.50
2018-11-12T04:58:56.974Z,18.50
2018-11-12T04:59:34.283Z,18.50
2018-11-12T05:00:11.756Z,18.50
2018-11-12T05:00:49.288Z,18.50
2018-11-12T05:01:26.733Z,18.50
2018-11-12T05:02:04.098Z,18.50
2018-11-12T05:02:41.457Z,18.50
2018-11-12T05:03:18.794Z,18.50
2018-11-12T05:03:56.281Z,18.50
2018-11-12T05:04:33.884Z,18.50
2018-11-12T05:05:11.491Z,18.50
2018-11-12T05:05:48.907Z,18.50
2018-11-12T05:06:26.440Z,18.50
2018-11-12T05:07:03.879Z,18.50
2018-11-12T05:07:41.402Z,18.50
2018-11-12T05:08:19.053Z,18.50
2018-11-12T05:08:56.498Z,18.50
2018-11-12T05:09:33.883Z,18.50
2018-11-12T05:10:11.276Z,18.60
2018-11-12T05:10:48.844Z,18.50
2018-11-12T05:11:26.624Z,18.60
2018-11-12T05:12:04.105Z,18.50
2018-11-12T05:12:41.623Z,18.50
2018-11-12T05:13:19.114Z,18.50
2018-11-12T05:13:56.386Z,18.60
2018-11-12T05:14:33.774Z,18.50
2018-11-12T05:15:11.223Z,18.50
2018-11-12T05:15:48.684Z,18.50
2018-11-12T05:16:26.056Z,18.50
2018-11-12T05:17:03.646Z,18.50
2018-11-12T05:17:41.100Z,18.50
2018-11-12T05:18:18.667Z,18.50
2018-11-12T05:18:55.899Z,18.50
2018-11-12T05:19:33.390Z,18.50
2018-11-12T05:20:11.052Z,18.50
2018-11-12T05:20:48.852Z,18.50
2018-11-12T05:21:27.186Z,18.50
2018-11-12T05:22:04.484Z,18.50
2018-11-12T05:22:42.908Z,18.50
2018-11-12T05:23:20.274Z,18.50
2018-11-12T05:23:57.751Z,18.50
2018-11-12T05:24:35.257Z,18.50
2018-11-12T05:25:12.631Z,18.50
2018-11-12T05:25:50.125Z,18.50
2018-11-12T05:26:27.504Z,18.50
2018-11-12T05:27:04.791Z,18.50
2018-11-12T05:27:42.242Z,18.50
2018-11-12T05:28:19.483Z,18.50
2018-11-12T05:28:56.977Z,18.50
2018-11-12T05:29:34.336Z,18.50
2018-11-12T05:30:11.704Z,18.50
2018-11-12T05:30:49.128Z,18.50
2018-11-12T05:31:26.343Z,18.50
2018-11-12T05:32:03.605Z,18.50
2018-11-12T05:32:40.928Z,18.50
2018-11-12T05:33:18.424Z,18.50
2018-11-12T05:33:56.015Z,18.60
2018-11-12T05:34:33.349Z,18.50
2018-11-12T05:35:10.665Z,18.50
2018-11-12T05:35:47.994Z,18.60
2018-11-12T05:36:25.434Z,18.60
2018-11-12T05:37:02.957Z,18.50
2018-11-12T05:37:40.431Z,18.50
2018-11-12T05:38:17.902Z,18.50
2018-11-12T05:38:55.132Z,18.50
2018-11-12T05:39:32.442Z,18.50
2018-11-12T05:40:09.741Z,18.50
2018-11-12T05:40:47.159Z,18.50
2018-11-12T05:41:24.507Z,18.50
2018-11-12T05:42:01.794Z,18.50
2018-11-12T05:42:39.190Z,18.50
2018-11-12T05:43:16.753Z,18.50
2018-11-12T05:43:54.198Z,18.50
2018-11-12T05:44:31.574Z,18.60
2018-11-12T05:45:09.082Z,18.50
2018-11-12T05:45:46.473Z,18.50
2018-11-12T05:46:24.067Z,18.60
2018-11-12T05:47:01.474Z,18.50
2018-11-12T05:47:38.950Z,18.50
2018-11-12T05:48:16.396Z,18.50
2018-11-12T05:48:53.834Z,18.50
2018-11-12T05:49:31.221Z,18.50
2018-11-12T05:50:08.810Z,18.50
2018-11-12T05:50:46.378Z,18.50
2018-11-12T05:51:23.936Z,18.50
2018-11-12T05:52:01.284Z,18.50
2018-11-12T05:52:38.578Z,18.50
2018-11-12T05:53:15.986Z,18.50
2018-11-12T05:53:53.424Z,18.50
2018-11-12T05:54:30.766Z,18.50
2018-11-12T05:55:08.127Z,18.50
2018-11-12T05:55:45.945Z,18.50
2018-11-12T05:56:23.895Z,18.50
2018-11-12T05:57:01.361Z,18.50
2018-11-12T05:57:38.668Z,18.50
2018-11-12T05:58:16.116Z,18.50
2018-11-12T05:58:53.858Z,18.50
2018-11-12T05:59:31.213Z,18.50
2018-11-12T06:00:08.566Z,18.50
2018-11-12T06:00:46.270Z,18.50
2018-11-12T06:01:23.598Z,18.50
2018-11-12T06:02:01.210Z,18.50
2018-11-12T06:02:38.589Z,18.50
2018-11-12T06:03:16.054Z,18.50
2018-11-12T06:03:53.504Z,18.40
2018-11-12T06:04:30.859Z,18.50
2018-11-12T06:05:08.110Z,18.50
2018-11-12T06:05:45.742Z,18.50
2018-11-12T06:06:23.316Z,18.50
2018-11-12T06:07:00.734Z,18.50
2018-11-12T06:07:37.976Z,18.50
2018-11-12T06:08:15.419Z,18.50
2018-11-12T06:08:52.694Z,18.40
2018-11-12T06:09:30.136Z,18.40
2018-11-12T06:10:07.514Z,18.50
2018-11-12T06:10:44.956Z,18.40
2018-11-12T06:11:22.226Z,18.40
2018-11-12T06:11:59.691Z,18.40
2018-11-12T06:12:37.336Z,18.40
2018-11-12T06:13:14.738Z,18.50
2018-11-12T06:13:52.440Z,18.40
2018-11-12T06:14:29.898Z,18.40
2018-11-12T06:15:07.378Z,18.50
2018-11-12T06:15:44.896Z,18.50
2018-11-12T06:16:22.428Z,18.40
2018-11-12T06:16:59.696Z,18.40
2018-11-12T06:17:37.237Z,18.40
2018-11-12T06:18:14.619Z,18.50
2018-11-12T06:18:52.148Z,18.50
2018-11-12T06:19:31.497Z,18.40
2018-11-12T06:20:09.056Z,18.50
2018-11-12T06:20:46.637Z,18.40
2018-11-12T06:21:24.086Z,18.40
2018-11-12T06:22:01.507Z,18.50
2018-11-12T06:22:38.782Z,18.40
2018-11-12T06:23:16.238Z,18.50
2018-11-12T06:23:53.858Z,18.40
2018-11-12T06:24:31.399Z,18.40
2018-11-12T06:25:09.131Z,18.40
2018-11-12T06:25:46.434Z,18.40
2018-11-12T06:26:23.897Z,18.40
2018-11-12T06:27:01.478Z,18.40
2018-11-12T06:27:38.929Z,18.40
2018-11-12T06:28:16.300Z,18.50
2018-11-12T06:28:53.577Z,18.50
2018-11-12T06:29:30.956Z,18.50
2018-11-12T06:30:08.360Z,18.40
2018-11-12T06:30:45.696Z,18.50
2018-11-12T06:31:23.306Z,18.50
2018-11-12T06:32:00.721Z,18.50
2018-11-12T06:32:38.235Z,18.50
2018-11-12T06:33:15.785Z,18.50
2018-11-12T06:33:53.238Z,18.40
2018-11-12T06:34:30.669Z,18.50
2018-11-12T06:35:08.057Z,18.50
2018-11-12T06:35:45.559Z,18.40
2018-11-12T06:36:23.037Z,18.50
2018-11-12T06:37:00.469Z,18.50
2018-11-12T06:37:37.839Z,18.50
2018-11-12T06:38:15.163Z,18.50
2018-11-12T06:38:52.472Z,18.50
2018-11-12T06:39:29.931Z,18.50
2018-11-12T06:40:07.346Z,18.50
2018-11-12T06:40:44.948Z,18.50
2018-11-12T06:41:22.355Z,18.50
2018-11-12T06:41:59.908Z,18.50
2018-11-12T06:42:37.545Z,18.50
2018-11-12T06:43:14.819Z,18.50
2018-11-12T06:43:52.177Z,18.50
2018-11-12T06:44:29.814Z,18.50
2018-11-12T06:45:07.078Z,18.50
2018-11-12T06:45:44.517Z,18.50
2018-11-12T06:46:21.989Z,18.50
2018-11-12T06:46:59.451Z,18.50
2018-11-12T06:47:36.801Z,18.50
2018-11-12T06:48:14.290Z,18.50
2018-11-12T06:48:51.712Z,18.50
2018-11-12T06:49:29.161Z,18.50
2018-11-12T06:50:06.532Z,18.50
2018-11-12T06:50:43.998Z,18.50
2018-11-12T06:51:21.402Z,18.50
2018-11-12T06:51:58.990Z,18.00
2018-11-12T06:52:36.552Z,18.40
2018-11-12T06:53:13.925Z,18.40
2018-11-12T06:53:51.151Z,18.40
2018-11-12T06:54:28.630Z,18.50
2018-11-12T06:55:05.819Z,18.40
2018-11-12T06:55:43.233Z,18.50
2018-11-12T06:56:20.707Z,18.50
2018-11-12T06:56:58.018Z,18.40
2018-11-12T06:57:35.514Z,18.50
2018-11-12T06:58:12.774Z,18.50
2018-11-12T06:58:50.275Z,18.50
2018-11-12T06:59:27.503Z,18.50
2018-11-12T07:00:04.804Z,18.50
2018-11-12T07:00:42.182Z,18.50
2018-11-12T07:01:19.654Z,18.50
2018-11-12T07:01:57.161Z,18.50
2018-11-12T07:02:34.481Z,18.50
2018-11-12T07:03:11.817Z,18.50
2018-11-12T07:03:49.250Z,18.50
2018-11-12T07:04:26.515Z,18.50
2018-11-12T07:05:03.735Z,18.50
2018-11-12T07:05:41.207Z,18.50
2018-11-12T07:06:18.635Z,18.50
2018-11-12T07:06:56.293Z,18.50
2018-11-12T07:07:33.622Z,18.50
2018-11-12T07:08:10.881Z,18.50
2018-11-12T07:08:48.344Z,18.50
2018-11-12T07:09:25.587Z,18.50
2018-11-12T07:10:03.110Z,18.50
2018-11-12T07:10:40.685Z,18.50
2018-11-12T07:11:18.114Z,18.50
2018-11-12T07:11:55.541Z,18.50
2018-11-12T07:12:32.782Z,18.50
2018-11-12T07:13:10.089Z,18.50
2018-11-12T07:13:47.343Z,18.50
2018-11-12T07:14:24.673Z,18.50
2018-11-12T07:15:02.061Z,18.60
2018-11-12T07:15:39.642Z,18.50
2018-11-12T07:16:17.194Z,18.60
2018-11-12T07:16:54.712Z,18.60
2018-11-12T07:17:32.263Z,18.60
2018-11-12T07:18:09.693Z,18.60
2018-11-12T07:18:47.202Z,18.60
2018-11-12T07:19:24.623Z,18.50
2018-11-12T07:20:02.172Z,18.60
2018-11-12T07:20:39.455Z,18.60
2018-11-12T07:21:17.069Z,18.50
2018-11-12T07:21:54.510Z,18.60
2018-11-12T07:22:32.019Z,18.50
2018-11-12T07:23:09.336Z,18.50
2018-11-12T07:23:46.849Z,18.60
2018-11-12T07:24:24.184Z,18.50
2018-11-12T07:25:01.762Z,18.50
2018-11-12T07:25:39.276Z,18.50
2018-11-12T07:26:16.845Z,18.50
2018-11-12T07:26:54.275Z,18.60
2018-11-12T07:27:31.684Z,18.60
2018-11-12T07:28:08.986Z,18.60
2018-11-12T07:28:46.288Z,18.60
2018-11-12T07:29:23.676Z,18.60
2018-11-12T07:30:01.245Z,18.50
2018-11-12T07:30:38.848Z,18.50
2018-11-12T07:31:16.420Z,18.50
2018-11-12T07:31:53.767Z,18.50
2018-11-12T07:32:31.239Z,18.60
2018-11-12T07:33:08.557Z,18.60
2018-11-12T07:33:46.027Z,18.60
2018-11-12T07:34:23.586Z,18.60
2018-11-12T07:35:00.953Z,18.60
2018-11-12T07:35:38.327Z,18.60
2018-11-12T07:36:15.727Z,18.60
2018-11-12T07:36:53.256Z,18.60
2018-11-12T07:37:30.693Z,18.60
2018-11-12T07:38:08.038Z,18.60
2018-11-12T07:38:45.547Z,18.60
2018-11-12T07:39:23.014Z,18.60
2018-11-12T07:40:00.499Z,18.60
2018-11-12T07:40:37.770Z,18.60
2018-11-12T07:41:15.016Z,18.60
2018-11-12T07:41:52.575Z,18.60
2018-11-12T07:42:29.903Z,18.60
2018-11-12T07:43:07.289Z,18.60
2018-11-12T07:43:44.844Z,18.60
2018-11-12T07:44:22.130Z,18.60
2018-11-12T07:44:59.609Z,18.60
2018-11-12T07:45:37.070Z,18.60
2018-11-12T07:46:14.542Z,18.60
2018-11-12T07:46:51.898Z,18.70
2018-11-12T07:47:29.256Z,18.60
2018-11-12T07:48:06.761Z,18.60
2018-11-12T07:48:44.185Z,18.60
2018-11-12T07:49:21.641Z,18.70
2018-11-12T07:49:59.156Z,18.70
2018-11-12T07:50:36.513Z,18.70
2018-11-12T07:51:13.786Z,18.70
2018-11-12T07:51:51.281Z,18.60
2018-11-12T07:52:28.730Z,18.70
2018-11-12T07:53:06.261Z,18.70
2018-11-12T07:53:43.670Z,18.70
2018-11-12T07:54:21.020Z,18.70
2018-11-12T07:54:58.577Z,18.70
2018-11-12T07:55:35.940Z,18.70
2018-11-12T07:56:13.379Z,18.70
2018-11-12T07:56:50.918Z,18.70
2018-11-12T07:57:28.441Z,18.70
2018-11-12T07:58:05.921Z,18.70
2018-11-12T07:58:43.168Z,18.70
2018-11-12T07:59:20.602Z,18.70
2018-11-12T07:59:57.844Z,18.70
2018-11-12T08:00:35.074Z,18.70
2018-11-12T08:01:12.711Z,18.70
2018-11-12T08:01:50.023Z,18.70
2018-11-12T08:02:27.421Z,18.80
2018-11-12T08:03:04.854Z,18.70